This is the latest recevied weather packets stored in our database for station/object WX7FGZ-5. If no packets are shown the sender has not sent any weather packets the latest 10 day(s).
| Time | Temp. | Humidity | Pressure | Rain* | Wind** | Luminosity | Snow |
|---|---|---|---|---|---|---|---|
| 1777736795 | 12.78° C | 22% | 1025.9 hPa | 0 mm | - | 610 W/m² | - |
| 1777736492 | 12.78° C | 23% | 1025.9 hPa | 0 mm | - | 642 W/m² | - |
| 1777735876 | 12.22° C | 23% | 1025.9 hPa | 0 mm | - | 578 W/m² | - |
| 1777735590 | 12.22° C | 23% | 1025.9 hPa | 0 mm | - | 578 W/m² | - |
| 1777735301 | 12.22° C | 23% | 1026 hPa | 0 mm | - | 559 W/m² | - |
| 1777734691 | 12.22° C | 23% | 1026.1 hPa | 0 mm | - | 522 W/m² | - |
| 1777733791 | 10.56° C | 28% | 1025.9 hPa | 0 mm | - | 418 W/m² | - |
| 1777733724 | 10.56° C | 29% | 1024.9 hPa | 0 mm | - | 455 W/m² | - |
| 1777733495 | 10.56° C | 29% | 1024.9 hPa | 0 mm | - | 455 W/m² | - |
| 1777733190 | 9.44° C | 30% | 1025.2 hPa | 0 mm | - | 415 W/m² | - |
| 1777733100 | 8.89° C | 32% | 1025.1 hPa | 0 mm | - | 388 W/m² | - |
| 1777732890 | 8.89° C | 32% | 1025.1 hPa | 0 mm | - | 388 W/m² | - |
| 1777731212 | 4.44° C | 45% | 1025.2 hPa | 0 mm | - | 255 W/m² | - |
| 1777731170 | 5° C | 39% | 1025.2 hPa | 0 mm | - | 285 W/m² | - |
| 1777730912 | 5° C | 39% | 1025.2 hPa | 0 mm | - | 285 W/m² | - |
| 1777730869 | 5° C | 39% | 1025.3 hPa | 0 mm | - | 269 W/m² | - |
| 1777730613 | 5° C | 39% | 1025.3 hPa | 0 mm | - | 269 W/m² | - |
| 1777730252 | 2.22° C | 46% | 1025.1 hPa | 0 mm | - | 230 W/m² | - |
| 1777730020 | 2.22° C | 46% | 1025.1 hPa | 0 mm | - | 230 W/m² | - |
| 1777729412 | 1.11° C | 48% | 1025.1 hPa | 0 mm | - | 190 W/m² | - |
| 1777729367 | 0.56° C | 50% | 1025.2 hPa | 0 mm | - | 163 W/m² | - |
| 1777729146 | 0.56° C | 50% | 1025.2 hPa | 0 mm | - | 163 W/m² | - |
| 1777729112 | 0.56° C | 50% | 1025.2 hPa | 0 mm | - | 163 W/m² | - |
| 1777729031 | 0° C | 52% | 1025.1 hPa | 0 mm | - | 128 W/m² | - |
| 1777728812 | 0° C | 52% | 1025.1 hPa | 0 mm | - | 128 W/m² | - |
* Rain latest hour (hover to see other rain measurements)
** Current wind speed in m/s (hover to see current wind gust speed)